createdAt,value
2016-09-06T00:00:14.927Z,77.94
2016-09-06T00:01:14.513Z,78.38
2016-09-06T00:02:14.517Z,78.33
2016-09-06T00:03:14.459Z,77.84
2016-09-06T00:04:14.431Z,78.13
2016-09-06T00:05:14.421Z,77.84
2016-09-06T00:06:14.423Z,77.94
2016-09-06T00:07:14.366Z,77.94
2016-09-06T00:08:14.318Z,77.94
2016-09-06T00:09:14.310Z,78.13
2016-09-06T00:10:14.287Z,78.03
2016-09-06T00:11:14.255Z,78.13
2016-09-06T00:12:14.221Z,77.84
2016-09-06T00:13:14.210Z,77.46
2016-09-06T00:14:14.192Z,77.56
2016-09-06T00:15:14.158Z,77.46
2016-09-06T00:16:14.478Z,78.13
2016-09-06T00:17:14.095Z,78.33
2016-09-06T00:18:14.068Z,77.36
2016-09-06T00:20:14.030Z,77.56
2016-09-06T00:21:28.712Z,77.65
2016-09-06T00:22:14.352Z,76.69
2016-09-06T00:23:13.944Z,77.08
2016-09-06T00:24:13.912Z,77.08
2016-09-06T00:25:13.902Z,76.98
2016-09-06T00:26:13.861Z,76.63
2016-09-06T00:27:13.853Z,76.15
2016-09-06T00:28:13.842Z,75.48
2016-09-06T00:29:13.788Z,75.86
2016-09-06T00:30:14.232Z,76.21
2016-09-06T00:31:13.733Z,76.4
2016-09-06T00:32:14.094Z,76.98
2016-09-06T00:33:13.694Z,77.08
2016-09-06T00:34:13.666Z,77.17
2016-09-06T00:35:13.630Z,77.26
2016-09-06T00:36:13.607Z,77.56
2016-09-06T00:37:28.312Z,77.46
2016-09-06T00:38:13.595Z,77.36
2016-09-06T00:39:28.249Z,78.23
2016-09-06T00:40:13.506Z,78.19
2016-09-06T00:41:13.495Z,78.03
2016-09-06T00:42:13.473Z,77.42
2016-09-06T00:43:13.497Z,77.94
2016-09-06T00:44:13.402Z,76.98
2016-09-06T00:45:13.377Z,77.08
2016-09-06T00:46:13.360Z,76.98
2016-09-06T00:47:13.342Z,76.88
2016-09-06T00:48:13.321Z,76.78
2016-09-06T00:49:13.276Z,76.31
2016-09-06T00:50:13.258Z,76.98
2016-09-06T00:52:13.222Z,77.08
2016-09-06T00:54:13.166Z,76.01
2016-09-06T00:55:13.121Z,75.54
2016-09-06T00:56:13.119Z,75.44
2016-09-06T00:57:13.070Z,76.21
2016-09-06T00:58:13.052Z,76.5
2016-09-06T00:59:13.025Z,76.98
2016-09-06T01:00:13.003Z,77.26
2016-09-06T01:01:13.008Z,77.17
2016-09-06T01:02:13.030Z,77.08
2016-09-06T01:03:12.930Z,77.61
2016-09-06T01:04:12.907Z,77.23
2016-09-06T01:05:12.872Z,77.81
2016-09-06T01:06:12.834Z,77.9
2016-09-06T01:07:13.364Z,78.19
2016-09-06T01:08:12.788Z,77.71
2016-09-06T01:09:12.796Z,76.98
2016-09-06T01:10:12.750Z,76.94
2016-09-06T01:11:12.715Z,75.54
2016-09-06T01:12:12.694Z,76.06
2016-09-06T01:13:12.683Z,76.11
2016-09-06T01:14:12.630Z,76.11
2016-09-06T01:15:27.327Z,76.59
2016-09-06T01:16:12.581Z,77.26
2016-09-06T01:17:12.569Z,77.36
2016-09-06T01:18:12.538Z,77.26
2016-09-06T01:19:12.527Z,77.36
2016-09-06T01:20:12.492Z,76.78
2016-09-06T01:21:12.453Z,75.34
2016-09-06T01:22:12.431Z,74.8
2016-09-06T01:23:12.409Z,74.22
2016-09-06T01:24:12.429Z,74.8
2016-09-06T01:25:12.365Z,75.38
2016-09-06T01:26:12.328Z,75.63
2016-09-06T01:27:12.327Z,76.4
2016-09-06T01:28:12.285Z,76.78
2016-09-06T01:29:12.271Z,76.78
2016-09-06T01:30:12.233Z,76.69
2016-09-06T01:31:12.243Z,76.78
2016-09-06T01:32:12.172Z,77.46
2016-09-06T01:33:12.145Z,77.23
2016-09-06T01:34:12.128Z,77.13
2016-09-06T01:35:12.094Z,77.04
2016-09-06T01:36:12.069Z,76.5
2016-09-06T01:37:12.054Z,76.5
2016-09-06T01:38:12.044Z,76.94
2016-09-06T01:39:11.996Z,77.33
2016-09-06T01:40:11.984Z,76.84
2016-09-06T01:41:11.949Z,77.04
2016-09-06T01:42:11.933Z,77.13
2016-09-06T01:43:11.978Z,76.84
2016-09-06T01:44:11.862Z,76.75
2016-09-06T01:46:12.119Z,77.23
2016-09-06T01:47:11.834Z,76.84
2016-09-06T01:48:11.767Z,77.04
2016-09-06T01:49:11.733Z,76.94
2016-09-06T01:50:11.723Z,77.13
2016-09-06T01:51:11.694Z,77.71
2016-09-06T01:52:26.676Z,77.42
2016-09-06T01:53:11.640Z,77.96
2016-09-06T01:54:11.619Z,78.06
2016-09-06T01:55:11.590Z,78.53
2016-09-06T01:56:11.562Z,78.53
2016-09-06T01:57:11.553Z,78.44
2016-09-06T01:58:11.520Z,78.63
2016-09-06T01:59:11.486Z,78.34
2016-09-06T02:00:11.446Z,78.34
2016-09-06T02:01:11.516Z,78.06
2016-09-06T02:02:11.403Z,79.21
2016-09-06T02:04:11.345Z,78.63
2016-09-06T02:05:11.318Z,79.4
2016-09-06T02:06:11.305Z,79.11
2016-09-06T02:07:11.278Z,78.92
2016-09-06T02:08:11.322Z,78.44
2016-09-06T02:09:11.238Z,77.76
2016-09-06T02:11:11.174Z,76.84
2016-09-06T02:12:25.860Z,76.65
2016-09-06T02:13:11.115Z,78
2016-09-06T02:14:11.086Z,77.51
2016-09-06T02:15:11.078Z,77.96
2016-09-06T02:16:11.039Z,78.06
2016-09-06T02:17:11.066Z,78.15
2016-09-06T02:18:10.991Z,78.53
2016-09-06T02:19:10.975Z,78.73
2016-09-06T02:20:11.334Z,78.44
2016-09-06T02:21:10.910Z,78.53
2016-09-06T02:22:10.892Z,78.06
2016-09-06T02:23:10.872Z,77.04
2016-09-06T02:24:10.840Z,76.84
2016-09-06T02:25:10.809Z,76.9
2016-09-06T02:26:10.778Z,77.48
2016-09-06T02:27:10.761Z,77.86
2016-09-06T02:28:10.747Z,77.58
2016-09-06T02:29:10.997Z,78.06
2016-09-06T02:30:10.800Z,78.06
2016-09-06T02:31:10.666Z,78.06
2016-09-06T02:32:10.651Z,78.15
2016-09-06T02:33:10.607Z,78.15
2016-09-06T02:34:10.576Z,78.25
2016-09-06T02:35:10.539Z,78.06
2016-09-06T02:36:10.633Z,78.69
2016-09-06T02:37:10.882Z,78.44
2016-09-06T02:38:10.471Z,78.34
2016-09-06T02:39:10.451Z,78.44
2016-09-06T02:40:10.415Z,79.07
2016-09-06T02:41:10.775Z,79.3
2016-09-06T02:42:10.374Z,79.02
2016-09-06T02:43:10.335Z,78.78
2016-09-06T02:44:10.336Z,78.88
2016-09-06T02:45:10.295Z,78.83
2016-09-06T02:46:10.261Z,78.25
2016-09-06T02:47:10.539Z,78.34
2016-09-06T02:48:10.208Z,78.44
2016-09-06T02:49:10.548Z,78.73
2016-09-06T02:50:10.170Z,79.11
2016-09-06T02:51:10.508Z,79.02
2016-09-06T02:52:10.108Z,78.98
2016-09-06T02:53:10.751Z,78.92
2016-09-06T02:54:10.066Z,79.17
2016-09-06T02:55:10.133Z,79.21
2016-09-06T02:56:10.006Z,79.17
2016-09-06T02:57:09.985Z,79.55
2016-09-06T02:58:10.338Z,78.78
2016-09-06T02:59:09.923Z,78.92
2016-09-06T03:00:09.904Z,79.02
2016-09-06T03:01:09.869Z,78.83
2016-09-06T03:02:09.850Z,79.02
2016-09-06T03:03:09.812Z,79.11
2016-09-06T03:04:09.799Z,79.02
2016-09-06T03:05:09.760Z,79.3
2016-09-06T03:06:09.766Z,79.55
2016-09-06T03:07:09.711Z,79.75
2016-09-06T03:08:10.059Z,80.04
2016-09-06T03:09:09.671Z,80.32
2016-09-06T03:10:24.661Z,80.51
2016-09-06T03:11:09.613Z,80.42
2016-09-06T03:12:09.601Z,80.32
2016-09-06T03:13:09.574Z,80.13
2016-09-06T03:14:09.520Z,79.94
2016-09-06T03:15:09.496Z,79.79
2016-09-06T03:16:09.476Z,79.84
2016-09-06T03:17:09.501Z,79.75
2016-09-06T03:18:09.422Z,79.88
2016-09-06T03:19:09.416Z,79.27
2016-09-06T03:20:09.729Z,78.92
2016-09-06T03:21:09.354Z,78.92
2016-09-06T03:22:10.002Z,78.92
2016-09-06T03:23:09.308Z,79.3
2016-09-06T03:24:09.301Z,79.55
2016-09-06T03:25:09.246Z,79.84
2016-09-06T03:26:09.220Z,79.55
2016-09-06T03:27:09.219Z,79.75
2016-09-06T03:28:09.176Z,79.3
2016-09-06T03:29:09.138Z,78.88
2016-09-06T03:30:09.111Z,78.88
2016-09-06T03:31:09.091Z,78.83
2016-09-06T03:32:09.069Z,79.84
2016-09-06T03:33:09.040Z,79.17
2016-09-06T03:34:09.004Z,78.78
2016-09-06T03:35:08.985Z,78.83
2016-09-06T03:36:08.959Z,78.59
2016-09-06T03:37:08.926Z,78.78
2016-09-06T03:38:08.911Z,78.78
2016-09-06T03:39:08.907Z,79.46
2016-09-06T03:40:08.846Z,79.36
2016-09-06T03:41:08.848Z,78.88
2016-09-06T03:42:09.210Z,79.17
2016-09-06T03:43:08.853Z,79.17
2016-09-06T03:44:08.757Z,78.88
2016-09-06T03:45:08.733Z,78.21
2016-09-06T03:46:23.713Z,77.58
2016-09-06T03:47:08.697Z,78.15
2016-09-06T03:49:08.630Z,78.11
2016-09-06T03:51:08.592Z,78.4
2016-09-06T03:52:08.587Z,78.21
2016-09-06T03:53:08.548Z,79.27
2016-09-06T03:54:08.514Z,78.78
2016-09-06T03:55:08.481Z,78.88
2016-09-06T03:56:08.424Z,78.88
2016-09-06T03:57:08.416Z,78.5
2016-09-06T03:58:08.778Z,78.11
2016-09-06T03:59:08.380Z,76.86
2016-09-06T04:00:08.347Z,76.32
2016-09-06T04:01:08.297Z,76.71
2016-09-06T04:02:08.297Z,76.32
2016-09-06T04:03:08.263Z,76.9
2016-09-06T04:04:08.265Z,76.71
2016-09-06T04:05:08.197Z,77
2016-09-06T04:06:22.890Z,76.48
2016-09-06T04:07:08.517Z,76.9
2016-09-06T04:08:22.832Z,75.56
2016-09-06T04:09:08.097Z,75.84
2016-09-06T04:10:23.380Z,76.32
2016-09-06T04:11:08.041Z,76.81
2016-09-06T04:12:08.071Z,76.71
2016-09-06T04:13:08.039Z,76.96
2016-09-06T04:14:07.957Z,76.86
2016-09-06T04:15:07.980Z,76.77
2016-09-06T04:16:07.914Z,77.44
2016-09-06T04:17:07.906Z,77.44
2016-09-06T04:18:07.864Z,77.34
2016-09-06T04:19:07.848Z,76.32
2016-09-06T04:20:07.803Z,76.32
2016-09-06T04:21:07.794Z,76.77
2016-09-06T04:22:08.118Z,76.86
2016-09-06T04:23:07.722Z,77.06
2016-09-06T04:24:07.814Z,77.25
2016-09-06T04:25:07.716Z,76.96
2016-09-06T04:26:07.665Z,76.86
2016-09-06T04:27:07.673Z,77.34
2016-09-06T04:28:07.635Z,77.15
2016-09-06T04:29:07.576Z,76.86
2016-09-06T04:30:07.546Z,77.06
2016-09-06T04:31:07.562Z,77.25
2016-09-06T04:32:12.522Z,77.63
2016-09-06T04:33:07.468Z,77.73
2016-09-06T04:34:07.446Z,77.98
2016-09-06T04:35:07.612Z,77.78
2016-09-06T04:36:07.412Z,78.55
2016-09-06T04:37:07.349Z,78.45
2016-09-06T04:38:07.342Z,78.65
2016-09-06T04:39:07.308Z,78.36
2016-09-06T04:40:07.288Z,78.08
2016-09-06T04:41:07.242Z,78.84
2016-09-06T04:42:07.234Z,79.13
2016-09-06T04:43:07.207Z,79.13
2016-09-06T04:44:07.185Z,79.22
2016-09-06T04:46:07.137Z,79.8
2016-09-06T04:47:21.824Z,79.03
2016-09-06T04:48:07.096Z,79.03
2016-09-06T04:49:07.056Z,79.03
2016-09-06T04:50:07.028Z,79.13
2016-09-06T04:51:07.029Z,79.22
2016-09-06T04:52:06.985Z,79.32
2016-09-06T04:53:06.942Z,79.71
2016-09-06T04:54:06.944Z,79.99
2016-09-06T04:55:06.897Z,80.09
2016-09-06T04:56:06.880Z,79.8
2016-09-06T04:57:06.854Z,79.8
2016-09-06T04:58:06.793Z,79.71
2016-09-06T04:59:06.791Z,79.32
2016-09-06T05:00:06.754Z,78.27
2016-09-06T05:01:06.768Z,78.11
2016-09-06T05:02:06.690Z,77.15
2016-09-06T05:03:06.671Z,77.92
2016-09-06T05:04:07.090Z,77.25
2016-09-06T05:05:06.632Z,77.92
2016-09-06T05:06:06.583Z,78.17
2016-09-06T05:07:06.604Z,78.65
2016-09-06T05:08:06.558Z,78.65
2016-09-06T05:09:06.620Z,78.84
2016-09-06T05:10:06.529Z,78.94
2016-09-06T05:11:06.470Z,78.94
2016-09-06T05:13:06.414Z,78.17
2016-09-06T05:14:06.405Z,77.78
2016-09-06T05:15:06.358Z,78.11
2016-09-06T05:16:06.363Z,77.78
2016-09-06T05:17:06.342Z,78.27
2016-09-06T05:18:06.265Z,78.55
2016-09-06T05:19:06.288Z,78.45
2016-09-06T05:20:06.607Z,78.4
2016-09-06T05:21:06.189Z,78.5
2016-09-06T05:22:06.558Z,77.25
2016-09-06T05:23:06.142Z,77.15
2016-09-06T05:24:06.111Z,76.32
2016-09-06T05:25:06.089Z,76.14
2016-09-06T05:26:06.083Z,76.71
2016-09-06T05:27:06.038Z,76.96
2016-09-06T05:28:06.011Z,77.15
2016-09-06T05:29:05.981Z,77.15
2016-09-06T05:30:05.985Z,77.92
2016-09-06T05:31:06.165Z,78.21
2016-09-06T05:32:06.277Z,78.78
2016-09-06T05:33:05.885Z,79.13
2016-09-06T05:34:05.858Z,78.84
2016-09-06T05:35:05.852Z,78.4
2016-09-06T05:36:05.817Z,77.53
2016-09-06T05:37:20.490Z,76.86
2016-09-06T05:38:05.749Z,76.96
2016-09-06T05:39:05.725Z,76.67
2016-09-06T05:40:05.711Z,76.96
2016-09-06T05:41:05.681Z,77.06
2016-09-06T05:42:05.740Z,77.53
2016-09-06T05:43:05.626Z,77.15
2016-09-06T05:44:05.603Z,78.02
2016-09-06T05:45:05.611Z,77.73
2016-09-06T05:46:05.541Z,77.83
2016-09-06T05:47:05.526Z,77.06
2016-09-06T05:48:05.501Z,77.29
2016-09-06T05:49:05.481Z,77.19
2016-09-06T05:50:05.450Z,76.71
2016-09-06T05:51:05.412Z,76.81
2016-09-06T05:52:05.412Z,76.52
2016-09-06T05:53:05.351Z,76.17
2016-09-06T05:54:05.329Z,76.36
2016-09-06T05:55:05.385Z,76.36
2016-09-06T05:56:05.328Z,75.88
2016-09-06T05:57:05.342Z,75.49
2016-09-06T05:58:05.215Z,75.69
2016-09-06T05:59:05.260Z,75.02
2016-09-06T06:00:05.176Z,75.88
2016-09-06T06:01:05.156Z,76.65
2016-09-06T06:02:05.147Z,77.19
2016-09-06T06:03:05.105Z,77.09
2016-09-06T06:04:05.067Z,77.76
2016-09-06T06:05:05.034Z,78.34
2016-09-06T06:06:05.177Z,79.02
2016-09-06T06:07:04.991Z,79.02
2016-09-06T06:08:04.991Z,78.92
2016-09-06T06:09:04.986Z,78.92
2016-09-06T06:10:05.448Z,78.83
2016-09-06T06:11:04.924Z,78.83
2016-09-06T06:12:05.218Z,78.73
2016-09-06T06:13:05.182Z,78.63
2016-09-06T06:14:04.835Z,78.25
2016-09-06T06:15:04.839Z,79.02
2016-09-06T06:16:04.774Z,78.83
2016-09-06T06:17:04.746Z,78.34
2016-09-06T06:18:04.903Z,78.38
2016-09-06T06:19:04.681Z,78.58
2016-09-06T06:20:04.947Z,78
2016-09-06T06:21:06.184Z,78.61
2016-09-06T06:22:04.590Z,78.77
2016-09-06T06:23:05.043Z,78.58
2016-09-06T06:24:19.257Z,78.23
2016-09-06T06:25:04.753Z,78.71
2016-09-06T06:26:04.497Z,78.52
2016-09-06T06:27:19.178Z,78.33
2016-09-06T06:28:04.785Z,78.71
2016-09-06T06:29:05.211Z,78.81
2016-09-06T06:30:04.811Z,78.61
2016-09-06T06:31:04.750Z,78.9
2016-09-06T06:32:04.338Z,79.28
2016-09-06T06:33:04.789Z,79.19
2016-09-06T06:34:05.515Z,79
2016-09-06T06:35:05.550Z,78.61
2016-09-06T06:36:04.219Z,78.52
2016-09-06T06:37:04.464Z,78.33
2016-09-06T06:38:04.182Z,78.52
2016-09-06T06:39:04.188Z,78.42
2016-09-06T06:40:04.118Z,78.61
2016-09-06T06:41:04.099Z,78.17
2016-09-06T06:42:04.140Z,78.36
2016-09-06T06:43:04.079Z,78.46
2016-09-06T06:44:04.017Z,78.27
2016-09-06T06:45:03.994Z,78.46
2016-09-06T06:46:03.999Z,79.03
2016-09-06T06:47:04.011Z,78.36
2016-09-06T06:49:03.922Z,78.27
2016-09-06T06:50:03.868Z,78.4
2016-09-06T06:51:03.879Z,77.73
2016-09-06T06:52:03.861Z,77.53
2016-09-06T06:53:03.780Z,77.63
2016-09-06T06:54:03.769Z,76.86
2016-09-06T06:56:03.717Z,76.51
2016-09-06T06:57:03.747Z,76.71
2016-09-06T06:58:03.723Z,77.09
2016-09-06T06:59:03.636Z,77
2016-09-06T07:00:03.617Z,76.61
2016-09-06T07:01:03.580Z,76.42
2016-09-06T07:02:03.581Z,77
2016-09-06T07:03:03.539Z,76.51
2016-09-06T07:04:03.511Z,76.9
2016-09-06T07:05:03.490Z,76.8
2016-09-06T07:06:03.453Z,76.9
2016-09-06T07:07:03.438Z,76.61
2016-09-06T07:08:03.923Z,76.55
2016-09-06T07:09:03.408Z,76.65
2016-09-06T07:10:18.375Z,76.45
2016-09-06T07:11:03.340Z,76.36
2016-09-06T07:12:03.365Z,76.75
2016-09-06T07:13:03.285Z,76.93
2016-09-06T07:14:03.265Z,75.88
2016-09-06T07:15:03.272Z,75.68
2016-09-06T07:16:03.216Z,76.17
2016-09-06T07:17:03.182Z,75.53
2016-09-06T07:18:03.182Z,75.43
2016-09-06T07:19:03.129Z,75.43
2016-09-06T07:20:03.174Z,74.95
2016-09-06T07:21:03.488Z,75.53
2016-09-06T07:22:03.100Z,74.47
2016-09-06T07:23:03.042Z,74.85
2016-09-06T07:24:03.001Z,74.57
2016-09-06T07:25:02.973Z,74.95
2016-09-06T07:26:08.740Z,74.18
2016-09-06T07:27:02.982Z,74.18
2016-09-06T07:28:02.901Z,74.12
2016-09-06T07:29:02.883Z,73.93
2016-09-06T07:30:02.862Z,74.31
2016-09-06T07:31:02.846Z,73.35
2016-09-06T07:32:02.801Z,73.93
2016-09-06T07:33:03.112Z,72.48
2016-09-06T07:34:02.759Z,72.58
2016-09-06T07:35:02.848Z,72.42
2016-09-06T07:36:02.767Z,73.06
2016-09-06T07:37:03.071Z,73.15
2016-09-06T07:38:02.730Z,73.35
2016-09-06T07:39:02.780Z,72.28
2016-09-06T07:40:02.893Z,72.61
2016-09-06T07:41:02.788Z,72.03
2016-09-06T07:42:02.957Z,70.48
2016-09-06T07:43:02.624Z,70.68
2016-09-06T07:44:02.573Z,70.68
2016-09-06T07:45:02.907Z,70.2
2016-09-06T07:46:02.875Z,69.23
2016-09-06T07:47:02.797Z,69.17
2016-09-06T07:48:02.630Z,69.36
2016-09-06T07:49:02.966Z,70.58
2016-09-06T07:50:02.882Z,71.26
2016-09-06T07:51:02.936Z,71.64
2016-09-06T07:52:02.379Z,71.06
2016-09-06T07:53:03.520Z,69.56
2016-09-06T07:54:02.280Z,68.4
2016-09-06T07:56:02.895Z,68.88
2016-09-06T07:57:02.174Z,68.4
2016-09-06T07:58:02.222Z,68.59
2016-09-06T07:59:02.223Z,68.88
2016-09-06T08:00:02.541Z,68.59
2016-09-06T08:01:02.189Z,68.78
2016-09-06T08:02:02.209Z,68.4
2016-09-06T08:03:02.233Z,68.78
2016-09-06T08:04:02.026Z,70.14
2016-09-06T08:05:01.972Z,68.98
2016-09-06T08:06:01.980Z,67.91
2016-09-06T08:07:02.161Z,67.91
2016-09-06T08:10:02.807Z,68.62
2016-09-06T08:11:01.878Z,69.59
2016-09-06T08:12:01.808Z,69.56
2016-09-06T08:13:02.435Z,70.42
2016-09-06T08:14:03.351Z,68.49
2016-09-06T08:15:02.855Z,70.32
2016-09-06T08:17:01.701Z,69.3
2016-09-06T08:18:01.673Z,69.01
2016-09-06T08:19:01.668Z,68.72
2016-09-06T08:20:01.658Z,69.78
2016-09-06T08:21:01.594Z,68.4
2016-09-06T08:22:01.625Z,69.3
2016-09-06T08:23:01.530Z,68.3
2016-09-06T08:24:01.507Z,67.36
2016-09-06T08:25:01.502Z,68.04
2016-09-06T08:26:01.461Z,68.2
2016-09-06T08:27:01.449Z,67.94
2016-09-06T08:28:01.414Z,67.27
2016-09-06T08:29:01.388Z,66.2
2016-09-06T08:30:01.401Z,66.78
2016-09-06T08:31:01.348Z,66.88
2016-09-06T08:32:01.308Z,66.72
2016-09-06T08:33:01.290Z,66.78
2016-09-06T08:34:01.276Z,65.85
2016-09-06T08:35:01.255Z,67.94
2016-09-06T08:36:01.237Z,66.98
2016-09-06T08:37:01.204Z,67.94
2016-09-06T08:38:01.550Z,67.17
2016-09-06T08:39:01.143Z,67.66
2016-09-06T08:40:01.115Z,67.08
2016-09-06T08:41:01.105Z,66.88
2016-09-06T08:42:01.089Z,67.01
2016-09-06T08:43:01.087Z,67.85
2016-09-06T08:44:01.014Z,67.85
2016-09-06T08:45:00.993Z,67.46
2016-09-06T08:46:00.961Z,67.75
2016-09-06T08:47:01.305Z,68.04
2016-09-06T08:48:00.940Z,67.94
2016-09-06T08:49:00.936Z,69.3
2016-09-06T08:50:00.855Z,68.04
2016-09-06T08:51:00.859Z,67.27
2016-09-06T08:52:00.828Z,68.62
2016-09-06T08:53:00.790Z,69.1
2016-09-06T08:54:00.781Z,69.3
2016-09-06T08:55:00.741Z,67.85
2016-09-06T08:56:00.723Z,66.5
2016-09-06T08:57:00.701Z,66.72
2016-09-06T08:58:00.672Z,66.14
2016-09-06T08:59:00.648Z,67.49
2016-09-06T09:00:00.632Z,66.4
2016-09-06T09:01:00.589Z,65.85
2016-09-06T09:02:00.614Z,66.91
2016-09-06T09:03:00.587Z,66.05
2016-09-06T09:04:00.956Z,65.56
2016-09-06T09:05:00.500Z,66.82
2016-09-06T09:06:00.496Z,66.91
2016-09-06T09:07:00.465Z,65.56
2016-09-06T09:08:00.446Z,65.47
2016-09-06T09:09:00.527Z,65.75
2016-09-06T09:10:00.818Z,66.72
2016-09-06T09:11:00.366Z,65.82
2016-09-06T09:13:00.312Z,66.72
2016-09-06T09:14:00.275Z,64.98
2016-09-06T09:15:00.502Z,65.27
2016-09-06T09:16:00.609Z,66.01
2016-09-06T09:17:00.354Z,65.56
2016-09-06T09:18:00.199Z,65.95
2016-09-06T09:20:00.214Z,64.79
2016-09-06T09:21:15.111Z,65.17
2016-09-06T09:22:00.092Z,64.89
2016-09-06T09:23:00.210Z,65.47
2016-09-06T09:24:00.214Z,64.5
2016-09-06T09:24:59.988Z,64.59
2016-09-06T09:25:59.980Z,64.5
2016-09-06T09:26:59.945Z,64.21
2016-09-06T09:27:59.955Z,64.01
2016-09-06T09:28:59.909Z,64.5
2016-09-06T09:29:59.877Z,64.5
2016-09-06T09:30:59.885Z,63.82
2016-09-06T09:32:14.574Z,63.08
2016-09-06T09:32:59.840Z,63.08
2016-09-06T09:33:59.795Z,63.46
2016-09-06T09:34:59.759Z,63.37
2016-09-06T09:35:59.737Z,63.37
2016-09-06T09:36:59.708Z,63.95
2016-09-06T09:38:00.189Z,63.82
2016-09-06T09:38:59.753Z,63.53
2016-09-06T09:39:59.723Z,62.08
2016-09-06T09:41:59.582Z,61.82
2016-09-06T09:42:59.571Z,62.21
2016-09-06T09:43:59.562Z,62.79
2016-09-06T09:44:59.527Z,61.82
2016-09-06T09:45:59.555Z,62.21
2016-09-06T09:46:59.846Z,62.11
2016-09-06T09:47:59.442Z,62.21
2016-09-06T09:49:00.133Z,62.59
2016-09-06T09:49:59.400Z,62.4
2016-09-06T09:50:59.360Z,61.92
2016-09-06T09:51:59.350Z,61.15
2016-09-06T09:52:59.362Z,61.82
2016-09-06T09:53:59.308Z,62.21
2016-09-06T09:54:59.292Z,61.82
2016-09-06T09:55:59.275Z,61.82
2016-09-06T09:56:59.207Z,61.33
2016-09-06T09:57:59.225Z,60.37
2016-09-06T09:58:59.196Z,59.5
2016-09-06T09:59:59.136Z,60.85
2016-09-06T10:00:59.111Z,61.33
2016-09-06T10:01:59.101Z,61.53
2016-09-06T10:02:59.563Z,61.63
2016-09-06T10:03:59.046Z,61.43
2016-09-06T10:04:59.036Z,61.92
2016-09-06T10:05:58.992Z,62.01
2016-09-06T10:06:58.974Z,61.72
2016-09-06T10:07:59.347Z,61.36
2016-09-06T10:08:58.967Z,61.46
2016-09-06T10:09:58.919Z,61.85
2016-09-06T10:10:58.873Z,62.21
2016-09-06T10:11:58.858Z,62.21
2016-09-06T10:12:58.853Z,62.01
2016-09-06T10:13:58.819Z,61.85
2016-09-06T10:14:58.773Z,61.66
2016-09-06T10:15:58.871Z,62.14
2016-09-06T10:16:58.733Z,61.82
2016-09-06T10:17:59.095Z,62.14
2016-09-06T10:18:58.674Z,62.14
2016-09-06T10:20:13.387Z,62.21
2016-09-06T10:20:58.630Z,61.72
2016-09-06T10:21:58.614Z,61.82
2016-09-06T10:22:58.596Z,61.24
2016-09-06T10:23:58.559Z,61.27
2016-09-06T10:24:58.551Z,62.04
2016-09-06T10:25:58.923Z,61.36
2016-09-06T10:26:58.494Z,62.04
2016-09-06T10:27:58.490Z,62.04
2016-09-06T10:28:58.450Z,62.4
2016-09-06T10:29:58.487Z,62.69
2016-09-06T10:30:58.397Z,62.59
2016-09-06T10:31:58.724Z,62.11
2016-09-06T10:33:58.328Z,62.21
2016-09-06T10:35:13.013Z,62.11
2016-09-06T10:35:58.292Z,61.76
2016-09-06T10:36:58.277Z,61.08
2016-09-06T10:37:58.250Z,58.95
2016-09-06T10:38:58.745Z,59.14
2016-09-06T10:40:12.897Z,57.88
2016-09-06T10:40:58.147Z,59.43
2016-09-06T10:41:58.120Z,60.33
2016-09-06T10:42:58.122Z,60.88
2016-09-06T10:43:58.120Z,60.78
2016-09-06T10:44:58.050Z,61.36
2016-09-06T10:46:12.759Z,60.78
2016-09-06T10:46:58.011Z,60.98
2016-09-06T10:47:57.995Z,60.78
2016-09-06T10:48:57.958Z,60.69
2016-09-06T10:49:57.966Z,60.59
2016-09-06T10:50:57.921Z,59.53
2016-09-06T10:51:57.888Z,59.4
2016-09-06T10:52:57.853Z,60.01
2016-09-06T10:53:57.843Z,59.72
2016-09-06T10:54:57.839Z,60.11
2016-09-06T10:55:57.841Z,60.91
2016-09-06T10:56:57.809Z,61.08
2016-09-06T10:57:57.739Z,59.53
2016-09-06T10:58:57.724Z,61.27
2016-09-06T10:59:58.061Z,61.43
2016-09-06T11:01:12.378Z,60.5
2016-09-06T11:01:57.626Z,59.63
2016-09-06T11:02:57.623Z,60.01
2016-09-06T11:03:57.591Z,61.18
2016-09-06T11:05:57.537Z,60.98
2016-09-06T11:06:57.524Z,61.18
2016-09-06T11:07:57.484Z,60.33
2016-09-06T11:08:57.483Z,60.43
2016-09-06T11:09:57.458Z,58.49
2016-09-06T11:10:57.427Z,57.91
2016-09-06T11:12:12.105Z,58.98
2016-09-06T11:12:57.387Z,60.04
2016-09-06T11:13:57.522Z,59.84
2016-09-06T11:14:57.331Z,59.17
2016-09-06T11:15:57.708Z,59.36
2016-09-06T11:16:57.292Z,59.36
2016-09-06T11:17:57.260Z,60.27
2016-09-06T11:18:57.249Z,58.49
2016-09-06T11:19:57.194Z,59.94
2016-09-06T11:21:12.422Z,59.94
2016-09-06T11:21:57.149Z,59.94
2016-09-06T11:22:57.136Z,59.27
2016-09-06T11:23:57.108Z,60.24
2016-09-06T11:24:57.542Z,59.94
2016-09-06T11:25:57.064Z,57.91
2016-09-06T11:26:57.060Z,57.71
2016-09-06T11:27:57.029Z,58.52
2016-09-06T11:28:57.019Z,59.3
2016-09-06T11:29:56.944Z,58.72
2016-09-06T11:30:56.955Z,58.04
2016-09-06T11:31:56.906Z,57.94
2016-09-06T11:33:11.901Z,58.06
2016-09-06T11:33:56.872Z,59
2016-09-06T11:34:56.850Z,59.1
2016-09-06T11:35:56.833Z,58.72
2016-09-06T11:36:56.787Z,58.72
2016-09-06T11:37:56.770Z,58.72
2016-09-06T11:38:56.749Z,58.91
2016-09-06T11:39:56.735Z,59.1
2016-09-06T11:40:56.695Z,59
2016-09-06T11:41:56.721Z,59.2
2016-09-06T11:42:56.705Z,57.84
2016-09-06T11:43:56.934Z,58.14
2016-09-06T11:44:56.615Z,57.26
2016-09-06T11:45:56.583Z,58.26
2016-09-06T11:46:56.584Z,58.36
2016-09-06T11:47:56.595Z,56.23
2016-09-06T11:48:56.978Z,57.39
2016-09-06T11:49:56.492Z,57.97
2016-09-06T11:50:56.856Z,58.14
2016-09-06T11:51:57.091Z,58.62
2016-09-06T11:52:56.434Z,58.91
2016-09-06T11:53:56.390Z,58.52
2016-09-06T11:55:11.084Z,58.81
2016-09-06T11:55:56.411Z,58.04
2016-09-06T11:56:56.310Z,57.94
2016-09-06T11:57:56.299Z,57.94
2016-09-06T11:58:56.290Z,57.91
2016-09-06T11:59:56.271Z,58.23
2016-09-06T12:00:56.240Z,58.36
2016-09-06T12:01:56.190Z,57
2016-09-06T12:02:56.218Z,55.57
2016-09-06T12:03:56.209Z,52.62
2016-09-06T12:04:56.169Z,52.57
2016-09-06T12:05:56.112Z,52.89
2016-09-06T12:06:56.765Z,52.86
2016-09-06T12:07:56.096Z,53.35
2016-09-06T12:08:56.035Z,54.2
2016-09-06T12:09:56.060Z,53.91
2016-09-06T12:10:56.287Z,54.1
2016-09-06T12:11:55.972Z,54.39
2016-09-06T12:12:55.995Z,54.49
2016-09-06T12:13:55.929Z,54.85
2016-09-06T12:14:55.930Z,55.14
2016-09-06T12:15:55.909Z,55.79
2016-09-06T12:16:55.861Z,55.5
2016-09-06T12:17:55.840Z,55.99
2016-09-06T12:18:56.178Z,55.5
2016-09-06T12:19:55.778Z,55.63
2016-09-06T12:21:10.780Z,56.11
2016-09-06T12:21:55.881Z,55.89
2016-09-06T12:22:55.704Z,55.99
2016-09-06T12:23:55.679Z,55.69
2016-09-06T12:24:55.647Z,55.89
2016-09-06T12:25:55.643Z,55.89
2016-09-06T12:26:55.620Z,56.37
2016-09-06T12:27:55.633Z,55.89
2016-09-06T12:28:55.583Z,55.6
2016-09-06T12:29:55.550Z,53.97
2016-09-06T12:30:55.531Z,55.02
2016-09-06T12:32:55.776Z,56.35
2016-09-06T12:33:55.444Z,57.03
2016-09-06T12:34:55.410Z,56.83
2016-09-06T12:35:55.410Z,56.83
2016-09-06T12:36:56.049Z,56.93
2016-09-06T12:37:55.759Z,56.93
2016-09-06T12:38:55.331Z,56.9
2016-09-06T12:39:55.311Z,56.54
2016-09-06T12:40:55.318Z,57.12
2016-09-06T12:41:55.259Z,55.67
2016-09-06T12:42:55.225Z,57.51
2016-09-06T12:43:55.235Z,57.19
2016-09-06T12:44:55.208Z,56.81
2016-09-06T12:45:55.185Z,56.93
2016-09-06T12:47:55.119Z,57.19
2016-09-06T12:49:09.808Z,57.58
2016-09-06T12:49:55.063Z,57.97
2016-09-06T12:51:10.092Z,58.16
2016-09-06T12:51:55.029Z,58.62
2016-09-06T12:52:54.997Z,58.14
2016-09-06T12:53:54.986Z,59
2016-09-06T12:54:54.947Z,58.14
2016-09-06T12:55:54.941Z,58.81
2016-09-06T12:56:54.929Z,54.35
2016-09-06T12:57:54.927Z,57.09
2016-09-06T12:58:54.920Z,56.61
2016-09-06T12:59:54.842Z,57.19
2016-09-06T13:01:54.880Z,56.51
2016-09-06T13:02:54.781Z,56.81
2016-09-06T13:03:55.121Z,57.39
2016-09-06T13:04:54.717Z,57.03
2016-09-06T13:05:54.700Z,56.74
2016-09-06T13:06:54.669Z,56.25
2016-09-06T13:07:54.662Z,56.64
2016-09-06T13:08:55.001Z,56.15
2016-09-06T13:09:54.594Z,56.28
2016-09-06T13:11:01.214Z,55.99
2016-09-06T13:11:54.572Z,55.24
2016-09-06T13:12:54.595Z,54.75
2016-09-06T13:13:54.558Z,54.36
2016-09-06T13:14:54.645Z,54.56
2016-09-06T13:15:54.696Z,54.17
2016-09-06T13:16:54.482Z,55.11
2016-09-06T13:17:54.453Z,54.85
2016-09-06T13:18:54.811Z,55.04